Terminal Aerodrome Forecast
Issued by NWS

Home | Current Version | Previous Version | Text Only | Print | Product List | Glossary On
Versions: 1 2 3 4 5 6 7 8 9 10 11 12 13 14 15
000
FTAK31 PANC 250523
TAFADU
TAF
PADU 250523Z 2506/2606 08011KT P6SM BKN050
      TEMPO 2506/2510 BKN025
     FM251800 14012G20KT P6SM BKN025
     FM260000 14012G24KT P6SM FEW025 BKN050=

USA.gov is the U.S. government's official web portal to all federal, state and local government web resources and services.